createdAt,value
2018-06-09T00:00:31.292Z,12.67
2018-06-09T00:02:59.392Z,13.50
2018-06-09T00:05:27.483Z,10.17
2018-06-09T00:07:55.588Z,10.20
2018-06-09T00:10:23.687Z,13.50
2018-06-09T00:12:51.797Z,13.83
2018-06-09T00:15:19.887Z,12.17
2018-06-09T00:17:48.000Z,13.50
2018-06-09T00:20:16.089Z,13.73
2018-06-09T00:22:44.192Z,12.93
2018-06-09T00:25:12.282Z,10.50
2018-06-09T00:27:40.388Z,11.70
2018-06-09T00:30:08.464Z,11.13
2018-06-09T00:32:36.576Z,11.33
2018-06-09T00:35:04.676Z,13.47
2018-06-09T00:37:32.779Z,15.40
2018-06-09T00:40:00.868Z,15.50
2018-06-09T00:42:28.983Z,11.13
2018-06-09T00:44:57.072Z,13.57
2018-06-09T00:47:25.180Z,10.90
2018-06-09T00:49:53.292Z,10.40
2018-06-09T00:52:21.404Z,11.10
2018-06-09T00:54:49.488Z,11.17
2018-06-09T00:57:17.584Z,13.90
2018-06-09T00:59:45.692Z,11.67
2018-06-09T01:02:13.785Z,13.07
2018-06-09T01:04:41.883Z,12.53
2018-06-09T01:07:09.977Z,13.60
2018-06-09T01:09:38.088Z,11.57
2018-06-09T01:12:06.195Z,12.00
2018-06-09T01:14:34.304Z,12.93
2018-06-09T01:17:02.526Z,15.13
2018-06-09T01:19:30.656Z,11.13
2018-06-09T01:21:58.749Z,10.10
2018-06-09T01:24:26.852Z,9.60
2018-06-09T01:26:55.060Z,12.53
2018-06-09T01:29:23.183Z,11.20
2018-06-09T01:31:51.292Z,13.23
2018-06-09T01:34:19.397Z,10.80
2018-06-09T01:36:47.492Z,10.10
2018-06-09T01:39:15.603Z,9.40
2018-06-09T01:41:43.703Z,11.17
2018-06-09T01:44:11.820Z,12.33
2018-06-09T01:46:39.916Z,11.73
2018-06-09T01:49:08.035Z,8.93
2018-06-09T01:51:36.125Z,13.77
2018-06-09T01:54:04.224Z,12.30
2018-06-09T01:56:32.309Z,8.37
2018-06-09T01:59:00.420Z,10.53
2018-06-09T02:01:28.534Z,11.37
2018-06-09T02:03:56.644Z,16.27
2018-06-09T02:06:24.735Z,13.10
2018-06-09T02:08:52.852Z,11.03
2018-06-09T02:11:20.948Z,14.57
2018-06-09T02:13:49.057Z,13.83
2018-06-09T02:16:17.149Z,11.00
2018-06-09T02:18:45.266Z,9.83
2018-06-09T02:21:13.352Z,10.80
2018-06-09T02:23:41.464Z,12.07
2018-06-09T02:26:09.553Z,14.63
2018-06-09T02:28:37.664Z,17.97
2018-06-09T02:31:05.757Z,10.80
2018-06-09T02:33:33.840Z,12.07
2018-06-09T02:36:01.949Z,11.57
2018-06-09T02:38:30.033Z,14.20
2018-06-09T02:40:58.152Z,11.10
2018-06-09T02:43:26.247Z,17.90
2018-06-09T02:45:54.356Z,16.47
2018-06-09T02:48:22.440Z,15.60
2018-06-09T02:50:50.568Z,20.40
2018-06-09T02:53:18.652Z,15.23
2018-06-09T02:55:46.748Z,16.13
2018-06-09T02:58:14.837Z,14.77
2018-06-09T03:00:42.945Z,16.27
2018-06-09T03:03:11.032Z,17.07
2018-06-09T03:05:39.139Z,20.47
2018-06-09T03:08:07.230Z,16.10
2018-06-09T03:10:35.348Z,14.63
2018-06-09T03:13:03.461Z,15.90
2018-06-09T03:15:31.572Z,18.53
2018-06-09T03:17:59.660Z,20.67
2018-06-09T03:20:27.768Z,14.67
2018-06-09T03:22:55.873Z,15.13
2018-06-09T03:25:23.979Z,15.53
2018-06-09T03:27:52.077Z,15.40
2018-06-09T03:30:20.193Z,17.83
2018-06-09T03:32:48.292Z,16.70
2018-06-09T03:35:16.404Z,15.13
2018-06-09T03:37:44.512Z,16.03
2018-06-09T03:40:12.622Z,18.20
2018-06-09T03:42:40.707Z,19.33
2018-06-09T03:45:08.824Z,16.17
2018-06-09T03:47:36.918Z,20.97
2018-06-09T03:50:05.037Z,15.33
2018-06-09T03:52:33.120Z,17.20
2018-06-09T03:55:01.230Z,20.70
2018-06-09T03:57:29.326Z,15.80
2018-06-09T03:59:57.430Z,16.97
2018-06-09T04:02:25.524Z,16.30
2018-06-09T04:04:53.640Z,17.10
2018-06-09T04:07:21.723Z,15.43
2018-06-09T04:09:49.818Z,19.13
2018-06-09T04:12:17.944Z,20.90
2018-06-09T04:14:46.032Z,15.17
2018-06-09T04:17:14.131Z,19.00
2018-06-09T04:19:42.220Z,18.87
2018-06-09T04:22:10.328Z,16.23
2018-06-09T04:24:38.415Z,15.23
2018-06-09T04:27:06.524Z,17.97
2018-06-09T04:29:34.608Z,18.17
2018-06-09T04:32:02.728Z,15.13
2018-06-09T04:34:30.836Z,13.57
2018-06-09T04:36:58.936Z,15.70
2018-06-09T04:39:27.020Z,16.57
2018-06-09T04:41:55.116Z,14.40
2018-06-09T04:44:23.207Z,14.93
2018-06-09T04:46:51.317Z,12.57
2018-06-09T04:49:19.420Z,16.63
2018-06-09T04:51:47.525Z,14.80
2018-06-09T04:54:15.616Z,11.20
2018-06-09T04:56:43.717Z,16.60
2018-06-09T04:59:11.823Z,13.60
2018-06-09T05:01:39.933Z,13.43
2018-06-09T05:04:08.013Z,12.03
2018-06-09T05:06:36.124Z,14.77
2018-06-09T05:09:06.160Z,17.23
2018-06-09T05:11:34.256Z,12.80
2018-06-09T05:14:02.357Z,12.27
2018-06-09T05:16:30.473Z,10.70
2018-06-09T05:18:58.560Z,9.17
2018-06-09T05:21:26.660Z,11.00
2018-06-09T05:23:54.742Z,10.53
2018-06-09T05:26:22.945Z,13.60
2018-06-09T05:28:50.996Z,10.67
2018-06-09T05:31:19.100Z,11.33
2018-06-09T05:33:47.192Z,10.33
2018-06-09T05:36:15.297Z,8.47
2018-06-09T05:38:43.395Z,10.80
2018-06-09T05:41:11.509Z,9.13
2018-06-09T05:43:39.592Z,9.60
2018-06-09T05:46:07.697Z,9.90
2018-06-09T05:48:35.812Z,12.57
2018-06-09T05:51:03.928Z,9.30
2018-06-09T05:53:32.032Z,11.10
2018-06-09T05:56:00.124Z,8.67
2018-06-09T05:58:28.224Z,6.73
2018-06-09T06:00:56.325Z,9.40
2018-06-09T06:03:24.428Z,13.03
2018-06-09T06:05:52.564Z,11.90
2018-06-09T06:08:20.709Z,8.67
2018-06-09T06:10:48.771Z,11.87
2018-06-09T06:13:16.884Z,10.10
2018-06-09T06:15:44.969Z,7.80
2018-06-09T06:18:13.069Z,7.00
2018-06-09T06:20:41.226Z,10.97
2018-06-09T06:23:09.339Z,8.30
2018-06-09T06:25:37.452Z,10.60
2018-06-09T06:28:05.551Z,9.63
2018-06-09T06:30:33.637Z,8.27
2018-06-09T06:33:01.740Z,7.30
2018-06-09T06:35:29.832Z,8.30
2018-06-09T06:37:57.932Z,8.87
2018-06-09T06:40:26.008Z,7.80
2018-06-09T06:42:54.108Z,7.23
2018-06-09T06:45:22.194Z,6.57
2018-06-09T06:47:50.309Z,7.87
2018-06-09T06:50:18.422Z,10.47
2018-06-09T06:52:46.524Z,6.83
2018-06-09T06:55:14.614Z,9.60
2018-06-09T06:57:42.716Z,6.17
2018-06-09T07:00:10.804Z,7.97
2018-06-09T07:02:38.909Z,8.27
2018-06-09T07:05:06.988Z,7.90
2018-06-09T07:07:35.092Z,11.13
2018-06-09T07:10:03.208Z,10.33
2018-06-09T07:12:31.312Z,8.10
2018-06-09T07:14:59.400Z,10.03
2018-06-09T07:17:27.496Z,8.40
2018-06-09T07:19:55.604Z,15.93
2018-06-09T07:22:23.683Z,8.00
2018-06-09T07:24:51.780Z,8.43
2018-06-09T07:27:19.864Z,9.13
2018-06-09T07:29:47.972Z,11.70
2018-06-09T07:32:16.076Z,9.23
2018-06-09T07:34:44.184Z,11.97
2018-06-09T07:37:12.292Z,7.87
2018-06-09T07:39:40.396Z,9.13
2018-06-09T07:42:08.485Z,9.13
2018-06-09T07:44:36.595Z,8.43
2018-06-09T07:47:04.687Z,9.53
2018-06-09T07:49:32.820Z,9.83
2018-06-09T07:52:00.906Z,9.20
2018-06-09T07:54:29.012Z,10.50
2018-06-09T07:56:57.096Z,9.00
2018-06-09T07:59:25.201Z,10.57
2018-06-09T08:01:53.284Z,11.23
2018-06-09T08:04:21.387Z,15.30
2018-06-09T08:06:49.552Z,8.70
2018-06-09T08:09:17.689Z,8.67
2018-06-09T08:11:45.806Z,10.07
2018-06-09T08:14:13.908Z,10.60
2018-06-09T08:16:42.109Z,14.93
2018-06-09T08:19:10.382Z,11.57
2018-06-09T08:21:38.475Z,16.67
2018-06-09T08:24:06.600Z,10.83
2018-06-09T08:26:34.689Z,10.33
2018-06-09T08:29:02.850Z,10.10
2018-06-09T08:31:30.919Z,9.60
2018-06-09T08:33:59.024Z,16.00
2018-06-09T08:36:27.124Z,10.93
2018-06-09T08:38:55.231Z,10.47
2018-06-09T08:41:23.326Z,12.27
2018-06-09T08:43:51.433Z,13.70
2018-06-09T08:46:19.519Z,12.80
2018-06-09T08:48:47.640Z,14.67
2018-06-09T08:51:15.731Z,13.43
2018-06-09T08:53:43.817Z,12.57
2018-06-09T08:56:11.925Z,12.27
2018-06-09T08:58:40.013Z,12.70
2018-06-09T09:01:08.116Z,12.07
2018-06-09T09:03:36.204Z,9.33
2018-06-09T09:06:04.316Z,13.90
2018-06-09T09:08:32.403Z,24.07
2018-06-09T09:11:00.512Z,14.87
2018-06-09T09:13:28.616Z,14.57
2018-06-09T09:15:56.715Z,14.50
2018-06-09T09:18:24.791Z,11.57
2018-06-09T09:20:52.896Z,19.00
2018-06-09T09:23:20.979Z,11.93
2018-06-09T09:25:49.095Z,15.40
2018-06-09T09:28:17.208Z,13.37
2018-06-09T09:30:45.315Z,16.50
2018-06-09T09:33:13.404Z,13.53
2018-06-09T09:35:41.514Z,11.00
2018-06-09T09:38:09.629Z,16.47
2018-06-09T09:40:37.741Z,10.17
2018-06-09T09:43:05.824Z,8.70
2018-06-09T09:45:33.927Z,9.73
2018-06-09T09:48:02.012Z,36.03
2018-06-09T09:50:30.151Z,10.07
2018-06-09T09:52:58.244Z,9.83
2018-06-09T09:55:26.361Z,11.33
2018-06-09T09:57:58.064Z,9.37
2018-06-09T10:00:31.611Z,11.50
2018-06-09T10:02:59.712Z,11.00
2018-06-09T10:05:27.833Z,14.97
2018-06-09T10:07:55.926Z,17.17
2018-06-09T10:10:24.041Z,12.90
2018-06-09T10:12:52.134Z,12.47
2018-06-09T10:15:20.240Z,11.60
2018-06-09T10:17:48.356Z,14.03
2018-06-09T10:20:16.445Z,15.70
2018-06-09T10:22:44.569Z,12.07
2018-06-09T10:25:12.665Z,15.80
2018-06-09T10:27:40.772Z,13.10
2018-06-09T10:30:08.872Z,11.00
2018-06-09T10:32:36.972Z,15.47
2018-06-09T10:35:05.065Z,15.57
2018-06-09T10:37:33.180Z,13.37
2018-06-09T10:40:01.273Z,11.40
2018-06-09T10:42:29.399Z,9.87
2018-06-09T10:44:57.491Z,10.83
2018-06-09T10:47:25.596Z,12.70
2018-06-09T10:49:53.716Z,12.30
2018-06-09T10:52:21.824Z,12.00
2018-06-09T10:54:49.908Z,10.77
2018-06-09T10:57:18.011Z,9.87
2018-06-09T10:59:46.120Z,9.30
2018-06-09T11:02:14.532Z,10.63
2018-06-09T11:04:42.623Z,11.50
2018-06-09T11:07:10.726Z,11.97
2018-06-09T11:09:38.811Z,9.87
2018-06-09T11:12:06.944Z,11.70
2018-06-09T11:14:35.039Z,10.77
2018-06-09T11:17:03.277Z,9.20
2018-06-09T11:19:31.374Z,10.17
2018-06-09T11:21:59.485Z,12.30
2018-06-09T11:24:27.600Z,8.83
2018-06-09T11:26:55.712Z,9.97
2018-06-09T11:29:24.260Z,9.40
2018-06-09T11:31:52.405Z,14.20
2018-06-09T11:34:20.500Z,12.33
2018-06-09T11:36:48.616Z,13.00
2018-06-09T11:39:16.704Z,11.97
2018-06-09T11:41:44.825Z,10.13
2018-06-09T11:44:12.913Z,10.00
2018-06-09T11:46:41.029Z,13.80
2018-06-09T11:49:09.153Z,12.00
2018-06-09T11:51:37.274Z,9.63
2018-06-09T11:54:05.364Z,10.83
2018-06-09T11:56:33.461Z,10.13
2018-06-09T11:59:01.618Z,10.73
2018-06-09T12:01:29.713Z,11.27
2018-06-09T12:03:57.824Z,12.90
2018-06-09T12:06:25.924Z,10.60
2018-06-09T12:08:54.028Z,15.00
2018-06-09T12:11:22.132Z,10.90
2018-06-09T12:13:50.234Z,9.40
2018-06-09T12:16:18.335Z,11.63
2018-06-09T12:18:46.452Z,10.63
2018-06-09T12:21:14.568Z,10.47
2018-06-09T12:23:42.681Z,12.27
2018-06-09T12:26:11.021Z,9.97
2018-06-09T12:28:39.127Z,11.40
2018-06-09T12:31:07.231Z,11.77
2018-06-09T12:33:35.325Z,11.90
2018-06-09T12:36:03.457Z,13.70
2018-06-09T12:38:31.563Z,10.40
2018-06-09T12:40:59.656Z,14.10
2018-06-09T12:43:27.771Z,8.60
2018-06-09T12:45:55.865Z,14.33
2018-06-09T12:48:24.077Z,10.60
2018-06-09T12:50:52.116Z,11.13
2018-06-09T12:53:20.234Z,10.93
2018-06-09T12:55:48.325Z,10.73
2018-06-09T12:58:16.436Z,13.43
2018-06-09T13:00:44.530Z,10.93
2018-06-09T13:03:12.640Z,9.80
2018-06-09T13:05:40.734Z,15.00
2018-06-09T13:08:08.868Z,11.73
2018-06-09T13:10:36.954Z,8.67
2018-06-09T13:13:05.065Z,11.17
2018-06-09T13:15:33.171Z,11.17
2018-06-09T13:18:01.304Z,11.23
2018-06-09T13:20:29.825Z,15.50
2018-06-09T13:22:57.935Z,9.37
2018-06-09T13:25:26.024Z,11.57
2018-06-09T13:27:54.107Z,13.27
2018-06-09T13:30:22.249Z,12.63
2018-06-09T13:32:50.365Z,10.07
2018-06-09T13:35:18.476Z,10.40
2018-06-09T13:37:46.571Z,10.47
2018-06-09T13:40:14.679Z,10.90
2018-06-09T13:42:43.015Z,10.93
2018-06-09T13:45:11.600Z,9.57
2018-06-09T13:47:39.685Z,11.73
2018-06-09T13:50:07.818Z,8.47
2018-06-09T13:52:35.924Z,9.70
2018-06-09T13:55:04.055Z,9.37
2018-06-09T13:57:32.165Z,11.43
2018-06-09T14:00:00.268Z,9.73
2018-06-09T14:02:28.373Z,15.07
2018-06-09T14:04:56.479Z,10.33
2018-06-09T14:07:24.584Z,18.43
2018-06-09T14:09:52.684Z,9.63
2018-06-09T14:12:20.780Z,10.70
2018-06-09T14:14:48.892Z,10.30
2018-06-09T14:17:16.976Z,9.53
2018-06-09T14:19:45.072Z,11.07
2018-06-09T14:22:13.168Z,9.67
2018-06-09T14:24:41.279Z,8.40
2018-06-09T14:27:09.384Z,13.60
2018-06-09T14:29:37.484Z,12.73
2018-06-09T14:32:05.584Z,10.80
2018-06-09T14:34:33.684Z,9.40
2018-06-09T14:37:01.781Z,10.60
2018-06-09T14:39:29.901Z,11.97
2018-06-09T14:41:57.996Z,11.23
2018-06-09T14:44:26.104Z,11.13
2018-06-09T14:46:54.184Z,9.77
2018-06-09T14:49:22.312Z,12.63
2018-06-09T14:51:50.404Z,12.67
2018-06-09T14:54:18.529Z,13.30
2018-06-09T14:56:46.628Z,11.00
2018-06-09T14:59:14.732Z,12.67
2018-06-09T15:01:42.840Z,12.10
2018-06-09T15:04:10.933Z,11.53
2018-06-09T15:06:39.041Z,12.20
2018-06-09T15:09:08.010Z,9.70
2018-06-09T15:11:36.121Z,11.60
2018-06-09T15:14:04.377Z,14.67
2018-06-09T15:16:32.548Z,12.47
2018-06-09T15:19:00.640Z,11.87
2018-06-09T15:21:28.747Z,15.60
2018-06-09T15:23:56.837Z,10.53
2018-06-09T15:26:24.954Z,13.93
2018-06-09T15:28:53.045Z,11.03
2018-06-09T15:31:21.152Z,10.40
2018-06-09T15:33:49.251Z,15.80
2018-06-09T15:36:17.368Z,15.10
2018-06-09T15:38:45.460Z,9.03
2018-06-09T15:41:13.569Z,12.53
2018-06-09T15:43:41.691Z,13.33
2018-06-09T15:46:09.812Z,11.37
2018-06-09T15:48:37.913Z,11.23
2018-06-09T15:51:06.061Z,11.70
2018-06-09T15:53:34.188Z,12.17
2018-06-09T15:56:02.285Z,11.77
2018-06-09T15:58:30.536Z,11.20
2018-06-09T16:00:58.653Z,11.23
2018-06-09T16:03:26.741Z,13.43
2018-06-09T16:05:54.849Z,14.30
2018-06-09T16:08:22.940Z,10.13
2018-06-09T16:10:51.043Z,15.97
2018-06-09T16:13:19.152Z,12.00
2018-06-09T16:15:47.256Z,10.57
2018-06-09T16:18:15.377Z,10.40
2018-06-09T16:20:43.500Z,9.20
2018-06-09T16:23:11.588Z,23.50
2018-06-09T16:25:39.697Z,16.60
2018-06-09T16:28:07.780Z,11.87
2018-06-09T16:30:35.876Z,11.73
2018-06-09T16:33:03.989Z,14.50
2018-06-09T16:35:32.079Z,14.63
2018-06-09T16:38:00.231Z,18.40
2018-06-09T16:40:28.325Z,11.00
2018-06-09T16:42:56.428Z,14.63
2018-06-09T16:45:24.520Z,13.30
2018-06-09T16:47:52.628Z,12.00
2018-06-09T16:50:20.737Z,19.97
2018-06-09T16:52:48.838Z,11.97
2018-06-09T16:55:16.933Z,21.40
2018-06-09T16:57:45.041Z,14.07
2018-06-09T17:00:13.221Z,15.50
2018-06-09T17:02:41.327Z,15.83
2018-06-09T17:05:09.440Z,17.23
2018-06-09T17:07:37.543Z,17.90
2018-06-09T17:10:05.716Z,21.73
2018-06-09T17:12:33.829Z,19.60
2018-06-09T17:15:01.925Z,19.63
2018-06-09T17:17:30.045Z,20.50
2018-06-09T17:19:59.044Z,16.70
2018-06-09T17:22:27.136Z,17.70
2018-06-09T17:24:55.220Z,18.80
2018-06-09T17:27:23.342Z,17.90
2018-06-09T17:29:51.427Z,19.10
2018-06-09T17:32:19.557Z,19.00
2018-06-09T17:34:47.644Z,24.10
2018-06-09T17:37:15.748Z,19.83
2018-06-09T17:39:43.840Z,22.13
2018-06-09T17:42:11.948Z,19.07
2018-06-09T17:44:40.041Z,21.40
2018-06-09T17:47:08.227Z,18.97
2018-06-09T17:49:36.329Z,21.33
2018-06-09T17:52:04.448Z,18.63
2018-06-09T17:54:32.637Z,17.77
2018-06-09T17:57:00.744Z,23.23
2018-06-09T17:59:28.844Z,21.67
2018-06-09T18:01:56.952Z,22.87
2018-06-09T18:04:25.060Z,21.17
2018-06-09T18:06:53.168Z,22.37
2018-06-09T18:09:21.295Z,30.80
2018-06-09T18:14:24.117Z,17.17
2018-06-09T18:16:52.225Z,19.80
2018-06-09T18:19:20.388Z,23.80
2018-06-09T18:21:48.461Z,22.37
2018-06-09T18:24:16.592Z,40.40
2018-06-09T18:26:44.685Z,28.70
2018-06-09T18:29:12.812Z,32.67
2018-06-09T18:31:40.908Z,19.60
2018-06-09T18:34:09.016Z,20.00
2018-06-09T18:36:37.109Z,19.53
2018-06-09T18:39:07.268Z,20.47
2018-06-09T18:41:35.379Z,19.53
2018-06-09T18:44:03.491Z,20.57
2018-06-09T18:46:31.579Z,20.40
2018-06-09T18:48:59.844Z,19.00
2018-06-09T18:51:27.950Z,19.33
2018-06-09T18:53:56.064Z,23.47
2018-06-09T18:56:24.153Z,18.60
2018-06-09T18:58:52.282Z,22.73
2018-06-09T19:01:20.368Z,20.07
2018-06-09T19:03:48.475Z,18.53
2018-06-09T19:06:16.564Z,25.07
2018-06-09T19:08:44.672Z,19.73
2018-06-09T19:11:12.830Z,18.67
2018-06-09T19:13:40.889Z,22.10
2018-06-09T19:16:08.994Z,24.40
2018-06-09T19:18:37.100Z,20.20
2018-06-09T19:21:05.229Z,22.20
2018-06-09T19:23:33.333Z,20.90
2018-06-09T19:26:01.422Z,22.33
2018-06-09T19:28:29.596Z,24.37
2018-06-09T19:30:57.692Z,20.47
2018-06-09T19:33:25.976Z,18.10
2018-06-09T19:35:54.068Z,16.73
2018-06-09T19:38:22.160Z,20.20
2018-06-09T19:40:50.272Z,22.20
2018-06-09T19:43:18.363Z,19.73
2018-06-09T19:45:46.468Z,19.83
2018-06-09T19:48:14.551Z,17.20
2018-06-09T19:50:42.676Z,18.27
2018-06-09T19:53:10.772Z,18.70
2018-06-09T19:55:38.891Z,20.70
2018-06-09T19:58:06.971Z,18.63
2018-06-09T20:00:35.073Z,16.77
2018-06-09T20:03:03.172Z,19.10
2018-06-09T20:05:31.272Z,18.13
2018-06-09T20:07:59.355Z,16.80
2018-06-09T20:10:27.484Z,19.70
2018-06-09T20:12:55.583Z,21.60
2018-06-09T20:15:23.704Z,21.43
2018-06-09T20:17:51.795Z,16.93
2018-06-09T20:20:19.899Z,19.07
2018-06-09T20:22:47.997Z,22.43
2018-06-09T20:25:16.104Z,21.63
2018-06-09T20:27:44.185Z,21.53
2018-06-09T20:30:12.292Z,22.13
2018-06-09T20:32:40.375Z,19.00
2018-06-09T20:35:08.488Z,17.70
2018-06-09T20:37:37.176Z,18.17
2018-06-09T20:40:05.292Z,22.70
2018-06-09T20:42:33.380Z,21.20
2018-06-09T20:45:01.500Z,20.50
2018-06-09T20:47:29.612Z,23.27
2018-06-09T20:49:57.833Z,15.73
2018-06-09T20:52:25.939Z,22.33
2018-06-09T20:54:54.056Z,22.10
2018-06-09T20:57:22.183Z,22.63
2018-06-09T20:59:50.292Z,21.53
2018-06-09T21:02:18.388Z,19.00
2018-06-09T21:04:46.507Z,22.47
2018-06-09T21:07:14.597Z,19.30
2018-06-09T21:09:42.733Z,15.40
2018-06-09T21:12:10.820Z,21.37
2018-06-09T21:14:38.912Z,15.63
2018-06-09T21:17:07.016Z,15.13
2018-06-09T21:19:35.100Z,18.30
2018-06-09T21:22:03.208Z,18.83
2018-06-09T21:24:31.302Z,16.20
2018-06-09T21:27:04.809Z,21.17
2018-06-09T21:29:38.136Z,18.13
2018-06-09T21:32:08.732Z,21.87
2018-06-09T21:35:49.960Z,20.70
2018-06-09T21:38:22.353Z,14.47
2018-06-09T21:40:54.776Z,12.37
2018-06-09T21:43:26.022Z,15.33
2018-06-09T21:45:54.116Z,19.67
2018-06-09T21:48:22.200Z,17.30
2018-06-09T21:50:50.403Z,12.37
2018-06-09T21:53:18.480Z,14.87
2018-06-09T21:55:46.567Z,12.00
2018-06-09T21:58:14.677Z,16.00
2018-06-09T22:00:49.284Z,15.10
2018-06-09T22:03:17.384Z,15.23
2018-06-09T22:05:45.459Z,16.50
2018-06-09T22:08:13.557Z,15.63
2018-06-09T22:10:41.640Z,18.40
2018-06-09T22:13:09.768Z,20.30
2018-06-09T22:15:37.852Z,18.30
2018-06-09T22:18:05.953Z,20.53
2018-06-09T22:20:34.044Z,17.83
2018-06-09T22:23:02.157Z,15.70
2018-06-09T22:25:35.492Z,14.73
2018-06-09T22:28:03.613Z,16.60
2018-06-09T22:30:31.705Z,17.50
2018-06-09T22:32:59.803Z,17.73
2018-06-09T22:35:27.907Z,15.80
2018-06-09T22:37:56.013Z,12.60
2018-06-09T22:40:24.091Z,16.13
2018-06-09T22:42:52.185Z,11.90
2018-06-09T22:45:20.285Z,15.50
2018-06-09T22:47:48.389Z,14.40
2018-06-09T22:50:16.496Z,15.20
2018-06-09T22:52:44.612Z,14.50
2018-06-09T22:55:12.708Z,14.53
2018-06-09T22:57:40.816Z,20.00
2018-06-09T23:00:08.927Z,19.13
2018-06-09T23:02:37.024Z,20.30
2018-06-09T23:05:05.120Z,20.67
2018-06-09T23:07:33.221Z,15.90
2018-06-09T23:10:01.300Z,17.30
2018-06-09T23:12:29.409Z,14.13
2018-06-09T23:14:57.491Z,17.97
2018-06-09T23:17:25.612Z,19.83
2018-06-09T23:19:53.687Z,15.30
2018-06-09T23:22:21.837Z,14.60
2018-06-09T23:24:49.901Z,16.70
2018-06-09T23:27:18.012Z,15.43
2018-06-09T23:29:46.095Z,14.53
2018-06-09T23:32:14.212Z,15.67
2018-06-09T23:34:42.317Z,13.27
2018-06-09T23:37:10.409Z,15.73
2018-06-09T23:39:38.521Z,16.30
2018-06-09T23:42:06.656Z,17.20
2018-06-09T23:44:34.748Z,16.37
2018-06-09T23:47:02.852Z,16.90
2018-06-09T23:49:30.975Z,18.70
2018-06-09T23:51:59.069Z,16.43
2018-06-09T23:54:27.177Z,18.50
2018-06-09T23:56:55.288Z,18.30
2018-06-09T23:59:23.403Z,13.53
